Terminal Aerodrome Forecast
Issued by NWS

Home | Current Version | Previous Version | Text Only | Print | Product List | Glossary On
Versions: 1 2 3 4 5 6 7 8 9 10 11 12 13 14 15 16 17 18 19
000
FTUS45 KGJT 280541
TAFTEX
TAF
KTEX 280541Z 2806/2906 00000KT 1/4SM FG VCSH OVC001
      TEMPO 2807/2811 3SM -SHSN BR SCT001 OVC012
     FM281100 13005KT 3SM -SHSN BR OVC025
     FM281600 32006KT 4SM -SHSN BR BKN035
     FM281800 33008KT 3SM -SHSNRA BR OVC025
     FM282100 34011G23KT 3SM -SHSNRA BR VCTS OVC020CB
     FM290100 35010G21KT 3SM -SHSN BR OVC025=

USA.gov is the U.S. government's official web portal to all federal, state and local government web resources and services.